createdAt,value
2022-10-26T00:00:27.004Z,4.13
2022-10-26T00:02:54.568Z,4.53
2022-10-26T00:05:22.112Z,3.97
2022-10-26T00:07:49.776Z,3.90
2022-10-26T00:10:17.959Z,4.07
2022-10-26T00:12:45.602Z,3.83
2022-10-26T00:15:13.070Z,2.83
2022-10-26T00:17:40.585Z,3.27
2022-10-26T00:20:08.286Z,3.50
2022-10-26T00:22:35.831Z,3.30
2022-10-26T00:25:04.141Z,3.00
2022-10-26T00:27:31.697Z,3.50
2022-10-26T00:29:59.231Z,3.27
2022-10-26T00:32:26.844Z,3.40
2022-10-26T00:34:55.112Z,3.00
2022-10-26T00:37:22.645Z,2.60
2022-10-26T00:39:50.188Z,3.10
2022-10-26T00:42:20.323Z,3.13
2022-10-26T00:44:47.866Z,2.90
2022-10-26T00:47:15.412Z,3.57
2022-10-26T00:49:42.988Z,3.10
2022-10-26T00:52:10.522Z,3.27
2022-10-26T00:54:38.814Z,3.43
2022-10-26T00:57:06.360Z,3.30
2022-10-26T00:59:34.652Z,3.03
2022-10-26T01:02:02.186Z,2.80
2022-10-26T01:04:30.519Z,3.40
2022-10-26T01:06:58.044Z,3.27
2022-10-26T01:09:25.601Z,3.83
2022-10-26T01:11:53.191Z,3.37
2022-10-26T01:14:20.863Z,3.53
2022-10-26T01:16:51.128Z,3.33
2022-10-26T01:19:21.475Z,3.53
2022-10-26T01:21:57.991Z,3.80
2022-10-26T01:24:28.204Z,3.40
2022-10-26T01:27:01.468Z,3.50
2022-10-26T01:29:47.498Z,3.70
2022-10-26T01:32:23.952Z,3.10
2022-10-26T01:34:54.429Z,3.57
2022-10-26T01:37:25.705Z,3.10
2022-10-26T01:39:56.055Z,3.23
2022-10-26T01:42:23.658Z,3.17
2022-10-26T01:44:57.436Z,3.70
2022-10-26T01:47:24.976Z,3.47
2022-10-26T01:49:52.545Z,4.50
2022-10-26T01:52:20.080Z,3.57
2022-10-26T01:54:47.606Z,3.80
2022-10-26T01:57:15.926Z,3.67
2022-10-26T01:59:58.378Z,3.73
2022-10-26T02:02:57.737Z,4.20
2022-10-26T02:05:58.670Z,3.83
2022-10-26T02:08:48.134Z,4.00
2022-10-26T02:11:15.669Z,3.60
2022-10-26T02:13:55.951Z,4.00
2022-10-26T02:16:44.381Z,4.00
2022-10-26T02:19:20.639Z,3.60
2022-10-26T02:21:48.941Z,3.30
2022-10-26T02:24:16.476Z,3.40
2022-10-26T02:26:44.172Z,3.60
2022-10-26T02:29:11.718Z,3.27
2022-10-26T02:31:39.254Z,3.70
2022-10-26T02:34:07.584Z,3.73
2022-10-26T02:36:35.117Z,3.73
2022-10-26T02:39:02.652Z,4.47
2022-10-26T02:41:30.218Z,3.60
2022-10-26T02:44:00.489Z,3.30
2022-10-26T02:46:28.016Z,3.70
2022-10-26T02:48:55.588Z,3.33
2022-10-26T02:51:28.826Z,3.60
2022-10-26T02:53:59.873Z,3.30
2022-10-26T02:56:46.608Z,3.50
2022-10-26T02:59:14.132Z,3.87
2022-10-26T03:01:42.467Z,3.60
2022-10-26T03:04:10.026Z,3.20
2022-10-26T03:06:37.546Z,3.53
2022-10-26T03:09:05.071Z,3.10
2022-10-26T03:11:32.653Z,3.17
2022-10-26T03:14:00.956Z,4.07
2022-10-26T03:16:28.501Z,3.30
2022-10-26T03:18:56.085Z,3.23
2022-10-26T03:21:23.609Z,3.00
2022-10-26T03:23:51.913Z,2.93
2022-10-26T03:26:19.468Z,3.17
2022-10-26T03:28:47.012Z,3.63
2022-10-26T03:31:14.556Z,3.77
2022-10-26T03:33:42.937Z,3.30
2022-10-26T03:36:10.452Z,3.70
2022-10-26T03:38:37.990Z,4.20
2022-10-26T03:41:05.542Z,3.60
2022-10-26T03:43:33.088Z,3.23
2022-10-26T03:46:00.630Z,3.50
2022-10-26T03:48:28.985Z,3.43
2022-10-26T03:50:59.382Z,3.57
2022-10-26T03:53:26.908Z,3.60
2022-10-26T03:55:54.463Z,3.40
2022-10-26T03:58:22.015Z,3.60
2022-10-26T04:00:49.522Z,3.10
2022-10-26T04:03:17.092Z,3.50
2022-10-26T04:05:44.614Z,3.83
2022-10-26T04:08:12.147Z,4.33
2022-10-26T04:10:40.478Z,4.20
2022-10-26T04:13:08.020Z,3.87
2022-10-26T04:15:35.564Z,3.47
2022-10-26T04:18:03.140Z,3.60
2022-10-26T04:20:30.693Z,3.83
2022-10-26T04:23:00.916Z,3.80
2022-10-26T04:25:30.232Z,4.23
2022-10-26T04:27:56.005Z,3.60
2022-10-26T04:30:24.308Z,3.77
2022-10-26T04:32:52.009Z,3.30
2022-10-26T04:35:19.437Z,4.10
2022-10-26T04:37:46.993Z,3.60
2022-10-26T04:40:14.578Z,4.20
2022-10-26T04:42:42.101Z,3.80
2022-10-26T04:45:09.703Z,3.67
2022-10-26T04:47:37.339Z,3.40
2022-10-26T04:50:04.911Z,4.80
2022-10-26T04:52:32.446Z,4.10
2022-10-26T04:55:00.033Z,4.70
2022-10-26T04:57:27.556Z,4.27
2022-10-26T04:59:55.079Z,3.80
2022-10-26T05:02:22.753Z,3.80
2022-10-26T05:04:50.264Z,4.33
2022-10-26T05:07:17.724Z,3.67
2022-10-26T05:09:45.287Z,3.63
2022-10-26T05:12:12.825Z,3.77
2022-10-26T05:14:40.366Z,3.73
2022-10-26T05:17:07.971Z,3.83
2022-10-26T05:19:35.487Z,3.77
2022-10-26T05:22:03.021Z,3.90
2022-10-26T05:24:31.353Z,4.23
2022-10-26T05:26:58.889Z,3.97
2022-10-26T05:29:26.424Z,4.00
2022-10-26T05:31:54.027Z,4.03
2022-10-26T05:34:21.550Z,4.17
2022-10-26T05:36:49.087Z,4.23
2022-10-26T05:39:17.427Z,3.70
2022-10-26T05:41:44.982Z,4.70
2022-10-26T05:44:12.516Z,4.87
2022-10-26T05:46:40.103Z,4.97
2022-10-26T05:49:07.655Z,4.40
2022-10-26T05:51:35.169Z,4.60
2022-10-26T05:54:02.744Z,4.97
2022-10-26T05:56:39.004Z,4.70
2022-10-26T05:59:12.218Z,5.27
2022-10-26T06:01:51.849Z,4.63
2022-10-26T06:04:21.852Z,4.77
2022-10-26T06:06:49.375Z,4.47
2022-10-26T06:09:16.929Z,4.63
2022-10-26T06:11:44.528Z,5.15
2022-10-26T06:14:12.054Z,5.62
2022-10-26T06:16:58.090Z,5.30
2022-10-26T06:19:31.438Z,4.50
2022-10-26T06:22:35.432Z,4.53
2022-10-26T06:25:24.460Z,5.12
2022-10-26T06:27:55.386Z,4.83
2022-10-26T06:30:23.118Z,3.83
2022-10-26T06:32:57.334Z,4.33
2022-10-26T06:35:42.495Z,3.70
2022-10-26T06:38:15.485Z,3.87
2022-10-26T06:40:43.029Z,5.03
2022-10-26T06:43:10.603Z,4.23
2022-10-26T06:45:38.150Z,3.87
2022-10-26T06:48:11.376Z,5.50
2022-10-26T06:50:42.847Z,4.43
2022-10-26T06:53:22.335Z,4.00
2022-10-26T06:55:49.919Z,3.47
2022-10-26T06:58:18.231Z,4.60
2022-10-26T07:00:45.775Z,4.10
2022-10-26T07:03:13.362Z,4.50
2022-10-26T07:05:40.885Z,3.87
2022-10-26T07:08:09.197Z,3.57
2022-10-26T07:10:36.921Z,3.73
2022-10-26T07:13:08.098Z,4.10
2022-10-26T07:15:38.566Z,3.57
2022-10-26T07:18:06.139Z,3.67
2022-10-26T07:20:33.664Z,3.40
2022-10-26T07:23:01.211Z,3.70
2022-10-26T07:25:28.804Z,3.73
2022-10-26T07:27:59.108Z,4.00
2022-10-26T07:30:26.652Z,5.05
2022-10-26T07:33:00.059Z,4.70
2022-10-26T07:35:27.598Z,4.47
2022-10-26T07:38:00.792Z,4.67
2022-10-26T07:40:28.405Z,3.80
2022-10-26T07:42:58.945Z,4.78
2022-10-26T07:45:27.257Z,4.35
2022-10-26T07:47:54.841Z,3.70
2022-10-26T07:50:22.446Z,3.73
2022-10-26T07:52:50.068Z,3.80
2022-10-26T07:55:17.495Z,4.10
2022-10-26T07:57:45.584Z,3.53
2022-10-26T08:00:12.715Z,4.00
2022-10-26T08:02:40.287Z,4.20
2022-10-26T08:05:07.889Z,3.73
2022-10-26T08:07:36.187Z,3.40
2022-10-26T08:10:04.517Z,3.70
2022-10-26T08:12:32.073Z,3.80
2022-10-26T08:14:59.618Z,4.43
2022-10-26T08:17:27.209Z,3.90
2022-10-26T08:19:54.704Z,3.37
2022-10-26T08:22:22.267Z,3.70
2022-10-26T08:24:49.848Z,4.00
2022-10-26T08:27:17.375Z,4.07
2022-10-26T08:29:44.903Z,3.40
2022-10-26T08:32:12.475Z,3.77
2022-10-26T08:34:40.778Z,3.67
2022-10-26T08:37:08.314Z,3.40
2022-10-26T08:39:36.646Z,3.23
2022-10-26T08:42:04.181Z,3.30
2022-10-26T08:44:31.715Z,3.07
2022-10-26T08:47:00.059Z,3.53
2022-10-26T08:49:30.280Z,3.13
2022-10-26T08:51:57.824Z,3.40
2022-10-26T08:54:37.361Z,3.35
2022-10-26T08:57:10.704Z,2.92
2022-10-26T08:59:41.725Z,2.83
2022-10-26T09:02:12.167Z,2.20
2022-10-26T09:04:40.470Z,2.40
2022-10-26T09:07:35.299Z,2.47
2022-10-26T09:10:02.836Z,2.60
2022-10-26T09:12:57.571Z,2.30
2022-10-26T09:15:43.116Z,2.13
2022-10-26T09:18:16.763Z,2.55
2022-10-26T09:20:47.078Z,2.37
2022-10-26T09:23:26.485Z,2.03
2022-10-26T09:25:59.993Z,2.03
2022-10-26T09:28:28.280Z,1.50
2022-10-26T09:30:55.844Z,2.47
2022-10-26T09:33:23.396Z,1.77
2022-10-26T09:36:03.083Z,2.30
2022-10-26T09:38:31.394Z,1.98
2022-10-26T09:41:10.990Z,1.40
2022-10-26T09:43:39.317Z,1.97
2022-10-26T09:46:06.818Z,1.97
2022-10-26T09:48:40.360Z,1.70
2022-10-26T09:51:07.903Z,1.83
2022-10-26T09:53:36.188Z,1.90
2022-10-26T09:56:06.465Z,1.50
2022-10-26T09:58:43.053Z,2.00
2022-10-26T10:01:38.270Z,1.93
2022-10-26T10:04:14.631Z,1.90
2022-10-26T10:06:45.968Z,1.67
2022-10-26T10:09:22.452Z,1.67
2022-10-26T10:11:56.687Z,1.93
2022-10-26T10:14:24.181Z,1.40
2022-10-26T10:16:51.723Z,1.93
2022-10-26T10:19:22.337Z,2.00
2022-10-26T10:21:49.882Z,1.53
2022-10-26T10:24:32.976Z,1.97
2022-10-26T10:27:03.476Z,1.30
2022-10-26T10:29:31.007Z,1.27
2022-10-26T10:32:00.988Z,1.70
2022-10-26T10:34:28.539Z,1.47
2022-10-26T10:36:56.085Z,1.40
2022-10-26T10:39:35.395Z,1.62
2022-10-26T10:42:02.930Z,1.40
2022-10-26T10:44:30.465Z,1.40
2022-10-26T10:47:04.978Z,1.40
2022-10-26T10:49:33.292Z,1.70
2022-10-26T10:52:00.838Z,1.47
2022-10-26T10:54:35.234Z,1.50
2022-10-26T10:57:21.281Z,1.70
2022-10-26T11:00:04.163Z,1.37
2022-10-26T11:02:53.490Z,1.37
2022-10-26T11:05:27.693Z,1.10
2022-10-26T11:08:13.074Z,1.27
2022-10-26T11:10:40.659Z,1.30
2022-10-26T11:13:08.185Z,1.33
2022-10-26T11:15:35.719Z,1.37
2022-10-26T11:18:06.255Z,1.10
2022-10-26T11:20:33.798Z,1.50
2022-10-26T11:25:34.316Z,1.03
2022-10-26T11:28:05.650Z,1.77
2022-10-26T11:30:33.186Z,1.43
2022-10-26T11:33:13.026Z,1.10
2022-10-26T11:35:55.556Z,1.03
2022-10-26T11:38:46.673Z,1.13
2022-10-26T11:41:11.639Z,1.20
2022-10-26T11:43:39.186Z,1.13
2022-10-26T11:46:18.214Z,0.73
2022-10-26T11:49:01.439Z,0.80
2022-10-26T11:51:40.830Z,1.00
2022-10-26T11:54:11.339Z,1.40
2022-10-26T11:56:38.843Z,0.90
2022-10-26T11:59:07.206Z,1.37
2022-10-26T12:01:34.849Z,1.07
2022-10-26T12:04:03.081Z,1.17
2022-10-26T12:06:30.686Z,1.20
2022-10-26T12:08:58.180Z,0.93
2022-10-26T12:11:47.258Z,1.20
2022-10-26T12:14:20.403Z,1.00
2022-10-26T12:17:18.607Z,1.20
2022-10-26T12:19:46.902Z,1.10
2022-10-26T12:22:14.419Z,0.97
2022-10-26T12:24:47.851Z,0.90
2022-10-26T12:27:33.523Z,0.70
2022-10-26T12:30:18.742Z,1.10
2022-10-26T12:32:46.287Z,0.90
2022-10-26T12:35:38.270Z,1.08
2022-10-26T12:38:25.626Z,0.80
2022-10-26T12:41:04.775Z,0.77
2022-10-26T12:43:32.365Z,1.10
2022-10-26T12:46:12.995Z,0.80
2022-10-26T12:48:40.536Z,1.20
2022-10-26T12:51:22.563Z,0.80
2022-10-26T12:53:50.100Z,0.73
2022-10-26T12:56:17.622Z,0.90
2022-10-26T12:58:51.645Z,0.90
2022-10-26T13:01:29.084Z,0.70
2022-10-26T13:04:02.564Z,0.83
2022-10-26T13:06:45.148Z,0.80
2022-10-26T13:09:22.134Z,0.90
2022-10-26T13:11:55.126Z,0.90
2022-10-26T13:14:22.648Z,0.63
2022-10-26T13:16:50.211Z,0.80
2022-10-26T13:19:32.733Z,0.50
2022-10-26T13:22:01.067Z,0.50
2022-10-26T13:24:28.619Z,0.53
2022-10-26T13:27:07.964Z,0.80
2022-10-26T13:29:35.508Z,0.57
2022-10-26T13:32:03.078Z,0.50
2022-10-26T13:34:30.656Z,0.80
2022-10-26T13:37:19.398Z,0.90
2022-10-26T13:39:46.999Z,0.63
2022-10-26T13:42:21.077Z,0.70
2022-10-26T13:44:52.114Z,0.90
2022-10-26T13:47:43.308Z,0.87
2022-10-26T13:50:13.530Z,0.80
2022-10-26T13:52:44.008Z,0.90
2022-10-26T13:55:32.702Z,0.70
2022-10-26T13:58:05.857Z,0.70
2022-10-26T14:00:34.213Z,0.63
2022-10-26T14:03:01.738Z,0.50
2022-10-26T14:05:29.262Z,0.57
2022-10-26T14:07:57.720Z,0.90
2022-10-26T14:10:31.049Z,0.87
2022-10-26T14:12:58.591Z,0.80
2022-10-26T14:15:26.889Z,0.60
2022-10-26T14:17:54.475Z,0.67
2022-10-26T14:20:22.019Z,0.70
2022-10-26T14:22:49.579Z,1.03
2022-10-26T14:25:26.692Z,0.70
2022-10-26T14:27:48.037Z,0.50
2022-10-26T14:30:22.470Z,0.90
2022-10-26T14:32:45.489Z,0.70
2022-10-26T14:35:15.979Z,1.17
2022-10-26T14:37:55.501Z,0.82
2022-10-26T14:40:23.036Z,0.60
2022-10-26T14:42:57.535Z,0.70
2022-10-26T14:47:56.381Z,0.75
2022-10-26T14:50:23.921Z,0.80
2022-10-26T14:52:53.203Z,0.50
2022-10-26T14:55:20.740Z,0.53
2022-10-26T14:57:48.276Z,0.80
2022-10-26T15:00:25.446Z,0.50
2022-10-26T15:05:20.579Z,0.63
2022-10-26T15:07:48.415Z,0.50
2022-10-26T15:10:37.204Z,0.60
2022-10-26T15:13:32.493Z,0.60
2022-10-26T15:16:08.788Z,0.80
2022-10-26T15:18:36.325Z,0.77
2022-10-26T15:21:03.924Z,0.77
2022-10-26T15:23:31.560Z,0.80
2022-10-26T15:26:01.923Z,0.95
2022-10-26T15:28:32.417Z,0.90
2022-10-26T15:31:01.301Z,0.87
2022-10-26T15:33:27.484Z,1.33
2022-10-26T15:36:20.379Z,0.70
2022-10-26T15:38:47.922Z,1.00
2022-10-26T15:41:15.458Z,1.00
2022-10-26T15:43:43.980Z,0.80
2022-10-26T15:46:11.519Z,0.70
2022-10-26T15:48:39.108Z,0.93
2022-10-26T15:51:07.482Z,1.03
2022-10-26T15:53:35.011Z,0.83
2022-10-26T15:56:02.554Z,0.77
2022-10-26T15:58:30.896Z,1.13
2022-10-26T16:00:58.498Z,1.00
2022-10-26T16:03:25.962Z,0.90
2022-10-26T16:05:58.987Z,1.20
2022-10-26T16:08:26.534Z,1.50
2022-10-26T16:10:54.077Z,1.40
2022-10-26T16:13:21.634Z,1.63
2022-10-26T16:15:49.170Z,1.43
2022-10-26T16:18:17.486Z,1.87
2022-10-26T16:20:48.019Z,1.57
2022-10-26T16:23:15.552Z,1.57
2022-10-26T16:25:43.088Z,1.67
2022-10-26T16:28:14.197Z,1.50
2022-10-26T16:33:09.274Z,2.97
2022-10-26T16:35:38.109Z,3.27
2022-10-26T16:38:05.526Z,2.10
2022-10-26T16:40:33.048Z,1.80
2022-10-26T16:43:01.973Z,1.70
2022-10-26T16:45:29.507Z,1.70
2022-10-26T16:47:57.800Z,1.87
2022-10-26T16:50:25.392Z,2.23
2022-10-26T16:52:52.910Z,1.70
2022-10-26T16:55:21.232Z,2.20
2022-10-26T16:57:49.345Z,2.17
2022-10-26T17:00:16.362Z,2.37
2022-10-26T17:02:43.930Z,3.37
2022-10-26T17:05:11.475Z,3.23
2022-10-26T17:07:39.018Z,2.47
2022-10-26T17:10:06.669Z,4.47
2022-10-26T17:12:34.254Z,3.10
2022-10-26T17:15:01.798Z,3.17
2022-10-26T17:17:29.337Z,3.30
2022-10-26T17:19:56.974Z,3.50
2022-10-26T17:22:25.268Z,4.00
2022-10-26T17:24:52.801Z,3.23
2022-10-26T17:27:20.372Z,2.60
2022-10-26T17:29:48.659Z,3.30
2022-10-26T17:32:16.205Z,7.77
2022-10-26T17:34:44.620Z,7.70
2022-10-26T17:37:12.154Z,5.87
2022-10-26T17:39:39.720Z,6.97
2022-10-26T17:42:07.299Z,6.27
2022-10-26T17:44:34.852Z,5.20
2022-10-26T17:47:02.386Z,5.13
2022-10-26T17:49:35.107Z,4.17
2022-10-26T17:51:58.272Z,3.93
2022-10-26T17:54:25.909Z,4.47
2022-10-26T17:56:53.490Z,4.47
2022-10-26T17:59:21.038Z,4.67
2022-10-26T18:01:48.818Z,5.03
2022-10-26T18:04:16.177Z,4.00
2022-10-26T18:06:43.695Z,4.30
2022-10-26T18:09:11.253Z,5.53
2022-10-26T18:11:38.828Z,5.07
2022-10-26T18:14:06.379Z,4.10
2022-10-26T18:16:33.897Z,2.87
2022-10-26T18:19:03.244Z,3.80
2022-10-26T18:21:33.160Z,3.17
2022-10-26T18:24:00.662Z,3.00
2022-10-26T18:26:28.245Z,3.17
2022-10-26T18:28:56.559Z,2.97
2022-10-26T18:31:24.086Z,3.10
2022-10-26T18:33:54.795Z,2.97
2022-10-26T18:36:22.437Z,3.20
2022-10-26T18:38:49.934Z,3.10
2022-10-26T18:41:18.272Z,2.97
2022-10-26T18:43:45.795Z,3.10
2022-10-26T18:46:19.012Z,3.17
2022-10-26T18:48:44.125Z,3.08
2022-10-26T18:51:11.670Z,2.80
2022-10-26T18:53:39.223Z,3.17
2022-10-26T18:56:06.804Z,2.73
2022-10-26T18:58:34.344Z,3.63
2022-10-26T19:01:07.995Z,3.65
2022-10-26T19:03:35.551Z,3.63
2022-10-26T19:06:15.954Z,3.27
2022-10-26T19:08:43.533Z,3.50
2022-10-26T19:11:11.093Z,3.40
2022-10-26T19:13:38.620Z,3.77
2022-10-26T19:16:12.711Z,4.47
2022-10-26T19:18:34.748Z,6.00
2022-10-26T19:21:02.411Z,12.03
2022-10-26T19:23:32.829Z,7.60
2022-10-26T19:26:00.356Z,5.93
2022-10-26T19:28:27.913Z,6.97
2022-10-26T19:30:55.849Z,7.93
2022-10-26T19:33:26.335Z,6.77
2022-10-26T19:35:54.698Z,6.20
2022-10-26T19:38:22.311Z,5.63
2022-10-26T19:40:50.268Z,5.30
2022-10-26T19:43:17.801Z,5.23
2022-10-26T19:45:46.155Z,5.07
2022-10-26T19:48:13.688Z,5.10
2022-10-26T19:50:41.237Z,6.15
2022-10-26T19:53:08.826Z,6.37
2022-10-26T19:55:36.352Z,6.87
2022-10-26T19:58:03.876Z,5.10
2022-10-26T20:00:32.857Z,4.93
2022-10-26T20:03:00.310Z,4.97
2022-10-26T20:05:29.418Z,8.27
2022-10-26T20:07:57.751Z,7.70
2022-10-26T20:10:25.284Z,5.37
2022-10-26T20:12:52.983Z,5.00
2022-10-26T20:15:21.159Z,4.53
2022-10-26T20:17:48.706Z,4.40
2022-10-26T20:20:16.257Z,5.10
2022-10-26T20:22:43.838Z,4.63
2022-10-26T20:25:11.367Z,4.13
2022-10-26T20:27:38.922Z,4.70
2022-10-26T20:30:06.613Z,3.93
2022-10-26T20:32:34.151Z,4.07
2022-10-26T20:35:01.695Z,3.90
2022-10-26T20:37:29.344Z,4.03
2022-10-26T20:39:56.859Z,4.37
2022-10-26T20:42:24.400Z,3.83
2022-10-26T20:45:00.725Z,5.30
2022-10-26T20:47:28.346Z,6.73
2022-10-26T20:49:55.901Z,7.17
2022-10-26T20:52:23.484Z,9.43
2022-10-26T20:54:54.446Z,9.40
2022-10-26T20:57:21.981Z,9.13
2022-10-26T20:59:50.339Z,8.87
2022-10-26T21:02:17.874Z,8.40
2022-10-26T21:04:45.470Z,7.47
2022-10-26T21:07:14.003Z,6.30
2022-10-26T21:09:41.531Z,6.43
2022-10-26T21:12:09.052Z,5.97
2022-10-26T21:14:37.710Z,5.87
2022-10-26T21:17:05.160Z,5.87
2022-10-26T21:19:32.706Z,5.70
2022-10-26T21:22:00.289Z,4.67
2022-10-26T21:24:27.845Z,4.23
2022-10-26T21:26:56.109Z,4.23
2022-10-26T21:29:23.679Z,4.10
2022-10-26T21:31:51.219Z,4.40
2022-10-26T21:34:18.752Z,4.87
2022-10-26T21:36:47.086Z,4.27
2022-10-26T21:39:14.635Z,4.33
2022-10-26T21:41:42.153Z,4.57
2022-10-26T21:44:24.664Z,5.00
2022-10-26T21:46:38.535Z,4.53
2022-10-26T21:49:06.070Z,4.13
2022-10-26T21:51:33.644Z,4.20
2022-10-26T21:54:01.197Z,4.60
2022-10-26T21:56:28.743Z,3.87
2022-10-26T21:58:57.344Z,4.33
2022-10-26T22:01:25.004Z,4.00
2022-10-26T22:03:52.428Z,4.60
2022-10-26T22:06:20.803Z,4.83
2022-10-26T22:08:48.274Z,4.67
2022-10-26T22:11:16.009Z,4.20
2022-10-26T22:13:43.392Z,4.23
2022-10-26T22:16:11.792Z,4.03
2022-10-26T22:18:39.336Z,4.67
2022-10-26T22:21:06.911Z,4.27
2022-10-26T22:23:34.444Z,5.07
2022-10-26T22:26:01.980Z,4.90
2022-10-26T22:28:32.060Z,3.77
2022-10-26T22:30:57.099Z,5.27
2022-10-26T22:33:25.416Z,4.87
2022-10-26T22:35:52.996Z,4.63
2022-10-26T22:38:20.539Z,4.50
2022-10-26T22:40:53.774Z,4.07
2022-10-26T22:43:21.358Z,3.70
2022-10-26T22:45:49.661Z,4.50
2022-10-26T22:48:17.201Z,3.73
2022-10-26T22:50:45.612Z,3.90
2022-10-26T22:53:13.137Z,3.63
2022-10-26T22:55:44.154Z,3.80
2022-10-26T22:58:11.717Z,5.00
2022-10-26T23:00:39.244Z,3.93
2022-10-26T23:03:06.761Z,4.87
2022-10-26T23:05:34.346Z,4.60
2022-10-26T23:08:01.896Z,4.37
2022-10-26T23:10:29.532Z,4.37
2022-10-26T23:12:57.902Z,4.60
2022-10-26T23:15:25.403Z,4.50
2022-10-26T23:17:53.246Z,4.80
2022-10-26T23:20:20.519Z,4.53
2022-10-26T23:22:48.783Z,4.23
2022-10-26T23:25:15.997Z,3.90
2022-10-26T23:27:43.704Z,4.17
2022-10-26T23:30:11.377Z,4.30
2022-10-26T23:32:38.903Z,4.17
2022-10-26T23:35:06.566Z,4.30
2022-10-26T23:37:34.135Z,3.83
2022-10-26T23:40:01.709Z,3.90
2022-10-26T23:42:29.268Z,4.13
2022-10-26T23:44:56.809Z,3.60
2022-10-26T23:47:24.343Z,3.53
2022-10-26T23:49:52.699Z,3.50
2022-10-26T23:52:20.225Z,3.70
2022-10-26T23:57:15.363Z,4.60
2022-10-26T23:59:42.913Z,6.30
